createdAt,value
2023-04-26T00:02:04.731Z,66.98
2023-04-26T00:04:32.238Z,66.80
2023-04-26T00:07:00.598Z,66.10
2023-04-26T00:09:27.339Z,66.32
2023-04-26T00:11:54.018Z,66.09
2023-04-26T00:14:21.127Z,66.08
2023-04-26T00:16:48.264Z,65.65
2023-04-26T00:19:15.975Z,66.02
2023-04-26T00:21:42.700Z,65.74
2023-04-26T00:24:09.571Z,65.32
2023-04-26T00:26:36.460Z,64.62
2023-04-26T00:29:06.082Z,64.99
2023-04-26T00:31:35.230Z,64.42
2023-04-26T00:34:02.030Z,64.41
2023-04-26T00:36:28.818Z,64.90
2023-04-26T00:38:55.681Z,65.31
2023-04-26T00:41:22.703Z,64.90
2023-04-26T00:43:49.686Z,64.53
2023-04-26T00:46:16.888Z,64.91
2023-04-26T00:48:44.881Z,64.45
2023-04-26T00:51:12.921Z,63.96
2023-04-26T00:53:40.091Z,64.04
2023-04-26T00:56:09.250Z,64.29
2023-04-26T00:58:37.601Z,64.60
2023-04-26T01:01:04.621Z,64.86
2023-04-26T01:03:31.536Z,64.98
2023-04-26T01:05:58.606Z,65.62
2023-04-26T01:08:25.563Z,65.91
2023-04-26T01:10:53.201Z,66.96
2023-04-26T01:13:20.790Z,67.04
2023-04-26T01:15:48.615Z,67.68
2023-04-26T01:18:15.436Z,67.42
2023-04-26T01:20:43.066Z,67.13
2023-04-26T01:23:11.760Z,67.99
2023-04-26T01:25:39.264Z,67.63
2023-04-26T01:28:06.350Z,67.79
2023-04-26T01:30:33.163Z,67.36
2023-04-26T01:33:03.206Z,67.52
2023-04-26T01:35:30.130Z,68.40
2023-04-26T01:37:56.853Z,67.94
2023-04-26T01:40:23.601Z,67.83
2023-04-26T01:42:50.438Z,68.44
2023-04-26T01:45:17.550Z,68.40
2023-04-26T01:48:03.171Z,68.13
2023-04-26T01:50:32.958Z,67.79
2023-04-26T01:52:59.643Z,67.88
2023-04-26T01:55:26.703Z,67.30
2023-04-26T01:57:53.700Z,67.56
2023-04-26T02:00:20.530Z,67.66
2023-04-26T02:02:49.442Z,68.46
2023-04-26T02:05:16.418Z,67.86
2023-04-26T02:07:43.169Z,67.76
2023-04-26T02:10:10.155Z,68.31
2023-04-26T02:12:36.956Z,69.00
2023-04-26T02:15:03.895Z,68.06
2023-04-26T02:17:33.976Z,68.22
2023-04-26T02:20:00.893Z,67.89
2023-04-26T02:22:27.759Z,68.01
2023-04-26T02:24:54.682Z,68.01
2023-04-26T02:27:27.783Z,67.37
2023-04-26T02:29:54.904Z,67.31
2023-04-26T02:32:21.819Z,67.22
2023-04-26T02:34:50.280Z,67.00
2023-04-26T02:37:17.111Z,66.43
2023-04-26T02:39:44.453Z,65.40
2023-04-26T02:42:11.359Z,66.02
2023-04-26T02:44:39.666Z,66.53
2023-04-26T02:47:07.027Z,65.98
2023-04-26T02:49:33.940Z,66.81
2023-04-26T02:52:00.796Z,66.14
2023-04-26T02:54:28.837Z,66.64
2023-04-26T02:56:58.993Z,66.48
2023-04-26T02:59:27.427Z,66.25
2023-04-26T03:01:55.530Z,66.30
2023-04-26T03:04:23.032Z,66.28
2023-04-26T03:06:49.889Z,66.43
2023-04-26T03:09:16.526Z,66.60
2023-04-26T03:11:43.252Z,65.89
2023-04-26T03:14:10.031Z,65.31
2023-04-26T03:16:44.786Z,65.04
2023-04-26T03:19:11.859Z,64.94
2023-04-26T03:21:39.913Z,65.16
2023-04-26T03:24:07.640Z,65.62
2023-04-26T03:26:34.394Z,65.68
2023-04-26T03:29:01.918Z,65.00
2023-04-26T03:31:28.794Z,63.98
2023-04-26T03:33:55.736Z,63.71
2023-04-26T03:36:22.512Z,63.88
2023-04-26T03:38:49.378Z,63.73
2023-04-26T03:41:17.758Z,62.85
2023-04-26T03:43:44.528Z,63.07
2023-04-26T03:46:11.397Z,62.80
2023-04-26T03:48:38.279Z,62.56
2023-04-26T03:51:05.031Z,62.39
2023-04-26T03:53:32.438Z,61.89
2023-04-26T03:56:05.446Z,62.01
2023-04-26T03:58:33.296Z,62.00
2023-04-26T04:01:00.818Z,61.67
2023-04-26T04:03:30.125Z,61.49
2023-04-26T04:05:59.693Z,61.42
2023-04-26T04:08:26.478Z,61.52
2023-04-26T04:10:53.259Z,61.49
2023-04-26T04:13:20.006Z,61.48
2023-04-26T04:15:49.336Z,61.08
2023-04-26T04:18:16.932Z,61.50
2023-04-26T04:20:43.694Z,61.87
2023-04-26T04:23:12.881Z,61.85
2023-04-26T04:25:41.101Z,61.96
2023-04-26T04:28:12.025Z,61.51
2023-04-26T04:30:39.071Z,61.65
2023-04-26T04:33:08.669Z,61.14
2023-04-26T04:35:35.472Z,60.99
2023-04-26T04:38:04.648Z,61.00
2023-04-26T04:40:32.400Z,60.86
2023-04-26T04:43:01.004Z,61.01
2023-04-26T04:45:31.878Z,60.74
2023-04-26T04:47:59.906Z,60.37
2023-04-26T04:50:31.813Z,60.31
2023-04-26T04:52:58.673Z,60.01
2023-04-26T04:55:25.763Z,60.13
2023-04-26T04:57:53.544Z,59.89
2023-04-26T05:00:21.175Z,60.00
2023-04-26T05:02:53.012Z,60.21
2023-04-26T05:05:19.944Z,60.75
2023-04-26T05:07:47.207Z,60.32
2023-04-26T05:10:15.092Z,60.27
2023-04-26T05:12:44.223Z,59.94
2023-04-26T05:15:11.300Z,59.29
2023-04-26T05:17:38.087Z,58.91
2023-04-26T05:20:20.865Z,58.58
2023-04-26T05:22:48.458Z,59.77
2023-04-26T05:25:15.498Z,60.45
2023-04-26T05:27:42.585Z,60.02
2023-04-26T05:30:16.509Z,60.74
2023-04-26T05:32:56.183Z,59.90
2023-04-26T05:35:47.128Z,60.18
2023-04-26T05:38:17.038Z,59.93
2023-04-26T05:40:48.317Z,59.72
2023-04-26T05:43:17.886Z,59.64
2023-04-26T05:45:54.949Z,59.84
2023-04-26T05:48:29.880Z,59.45
2023-04-26T05:50:56.932Z,59.28
2023-04-26T05:53:25.947Z,59.41
2023-04-26T05:55:52.820Z,58.55
2023-04-26T05:58:22.011Z,58.73
2023-04-26T06:00:49.739Z,58.99
2023-04-26T06:03:18.803Z,59.39
2023-04-26T06:05:45.909Z,59.32
2023-04-26T06:08:14.735Z,58.49
2023-04-26T06:10:41.601Z,57.78
2023-04-26T06:13:08.388Z,57.89
2023-04-26T06:15:37.146Z,57.77
2023-04-26T06:18:06.476Z,57.70
2023-04-26T06:20:33.653Z,57.86
2023-04-26T06:23:00.575Z,57.33
2023-04-26T06:25:27.510Z,57.59
2023-04-26T06:27:54.723Z,57.39
2023-04-26T06:30:21.455Z,57.52
2023-04-26T06:32:48.821Z,57.24
2023-04-26T06:35:18.662Z,56.99
2023-04-26T06:37:45.840Z,57.49
2023-04-26T06:40:15.798Z,57.45
2023-04-26T06:42:43.494Z,57.15
2023-04-26T06:45:25.285Z,57.76
2023-04-26T06:47:53.304Z,57.46
2023-04-26T06:50:23.714Z,57.87
2023-04-26T06:52:51.527Z,58.46
2023-04-26T06:55:18.944Z,58.35
2023-04-26T06:57:51.729Z,58.21
2023-04-26T07:00:18.552Z,58.51
2023-04-26T07:02:45.897Z,59.30
2023-04-26T07:05:16.351Z,60.00
2023-04-26T07:07:43.293Z,60.42
2023-04-26T07:10:10.579Z,61.23
2023-04-26T07:12:37.398Z,61.28
2023-04-26T07:15:06.664Z,61.43
2023-04-26T07:17:33.889Z,62.57
2023-04-26T07:20:04.251Z,62.91
2023-04-26T07:22:31.198Z,63.57
2023-04-26T07:25:00.636Z,64.12
2023-04-26T07:27:28.029Z,65.25
2023-04-26T07:29:57.835Z,64.55
2023-04-26T07:32:24.604Z,64.14
2023-04-26T07:34:51.691Z,65.34
2023-04-26T07:37:18.782Z,62.86
2023-04-26T07:39:50.236Z,63.13
2023-04-26T07:42:19.542Z,62.81
2023-04-26T07:44:48.353Z,62.18
2023-04-26T07:47:15.749Z,62.08
2023-04-26T07:49:47.656Z,61.24
2023-04-26T07:52:14.937Z,60.62
2023-04-26T07:54:44.692Z,60.94
2023-04-26T07:57:11.459Z,56.97
2023-04-26T07:59:38.173Z,54.80
2023-04-26T08:02:04.946Z,55.02
2023-04-26T08:04:34.423Z,55.02
2023-04-26T08:07:02.050Z,55.25
2023-04-26T08:09:30.693Z,54.27
2023-04-26T08:11:58.088Z,54.09
2023-04-26T08:14:25.164Z,51.91
2023-04-26T08:16:52.090Z,53.23
2023-04-26T08:19:18.918Z,53.92
2023-04-26T08:21:46.252Z,53.27
2023-04-26T08:24:13.402Z,50.53
2023-04-26T08:26:41.173Z,51.64
2023-04-26T08:29:08.073Z,49.84
2023-04-26T08:31:35.556Z,48.83
2023-04-26T08:34:02.351Z,47.21
2023-04-26T08:36:29.178Z,48.02
2023-04-26T08:38:57.686Z,48.53
2023-04-26T08:41:26.057Z,47.94
2023-04-26T08:43:54.753Z,49.54
2023-04-26T08:46:22.488Z,48.86
2023-04-26T08:49:01.988Z,48.18
2023-04-26T08:51:29.962Z,45.78
2023-04-26T08:53:58.994Z,45.45
2023-04-26T08:56:26.140Z,45.48
2023-04-26T08:58:56.971Z,46.46
2023-04-26T09:01:26.300Z,43.45
2023-04-26T09:03:57.016Z,43.26
2023-04-26T09:06:25.033Z,44.37
2023-04-26T09:08:55.026Z,42.20
2023-04-26T09:11:22.452Z,42.11
2023-04-26T09:13:49.496Z,40.95
2023-04-26T09:16:16.301Z,42.12
2023-04-26T09:18:57.396Z,44.08
2023-04-26T09:21:24.794Z,42.51
2023-04-26T09:24:04.670Z,41.41
2023-04-26T09:26:31.468Z,41.89
2023-04-26T09:29:16.736Z,42.34
2023-04-26T09:31:49.983Z,42.00
2023-04-26T09:34:19.245Z,43.58
2023-04-26T09:36:55.577Z,41.38
2023-04-26T09:39:40.411Z,42.03
2023-04-26T09:42:08.044Z,44.65
2023-04-26T09:44:38.372Z,39.79
2023-04-26T09:47:09.669Z,39.42
2023-04-26T09:49:48.806Z,40.21
2023-04-26T09:52:16.416Z,38.04
2023-04-26T09:54:52.268Z,37.07
2023-04-26T09:57:27.263Z,37.48
2023-04-26T09:59:58.448Z,37.75
2023-04-26T10:02:29.962Z,37.93
2023-04-26T10:05:02.047Z,39.27
2023-04-26T10:07:30.372Z,39.50
2023-04-26T10:10:01.535Z,39.26
2023-04-26T10:12:29.397Z,39.04
2023-04-26T10:14:57.618Z,39.64
2023-04-26T10:17:24.766Z,40.25
2023-04-26T10:19:57.018Z,38.87
2023-04-26T10:22:27.502Z,37.41
2023-04-26T10:24:56.041Z,38.31
2023-04-26T10:27:47.182Z,36.49
2023-04-26T10:30:19.991Z,36.40
2023-04-26T10:32:55.482Z,36.77
2023-04-26T10:35:30.988Z,35.70
2023-04-26T10:38:00.643Z,35.81
2023-04-26T10:40:31.020Z,35.51
2023-04-26T10:43:09.917Z,35.34
2023-04-26T10:45:40.511Z,36.37
2023-04-26T10:48:19.615Z,37.11
2023-04-26T10:51:01.716Z,38.50
2023-04-26T10:53:33.139Z,39.71
2023-04-26T10:55:59.855Z,38.46
2023-04-26T10:58:33.727Z,39.25
2023-04-26T11:01:17.441Z,39.90
2023-04-26T11:04:05.140Z,40.99
2023-04-26T11:06:55.014Z,41.54
2023-04-26T11:09:33.181Z,40.83
2023-04-26T11:12:00.016Z,40.76
2023-04-26T11:14:26.845Z,40.81
2023-04-26T11:16:56.311Z,41.09
2023-04-26T11:19:23.349Z,41.14
2023-04-26T11:21:50.631Z,40.95
2023-04-26T11:24:17.419Z,39.88
2023-04-26T11:26:51.640Z,36.63
2023-04-26T11:29:21.440Z,32.16
2023-04-26T11:32:07.058Z,30.41
2023-04-26T11:34:39.285Z,29.59
2023-04-26T11:37:07.041Z,28.39
2023-04-26T11:39:35.214Z,25.20
2023-04-26T11:42:09.505Z,23.38
2023-04-26T11:44:39.376Z,20.66
2023-04-26T11:47:07.903Z,20.88
2023-04-26T11:49:39.583Z,21.83
2023-04-26T11:52:08.217Z,18.36
2023-04-26T11:54:37.588Z,17.03
2023-04-26T11:57:17.322Z,16.66
2023-04-26T11:59:47.039Z,16.96
2023-04-26T12:02:14.591Z,19.06
2023-04-26T12:04:44.676Z,22.80
2023-04-26T12:07:18.847Z,25.83
2023-04-26T12:09:45.721Z,28.61
2023-04-26T12:12:12.518Z,30.10
2023-04-26T12:14:40.414Z,33.15
2023-04-26T12:17:08.351Z,33.61
2023-04-26T12:19:39.371Z,34.63
2023-04-26T12:22:07.546Z,36.44
2023-04-26T12:24:36.773Z,36.94
2023-04-26T12:27:06.687Z,37.03
2023-04-26T12:29:39.415Z,37.30
2023-04-26T12:32:14.205Z,37.81
2023-04-26T12:34:42.787Z,39.87
2023-04-26T12:37:17.043Z,45.34
2023-04-26T12:39:44.499Z,49.38
2023-04-26T12:42:11.537Z,51.43
2023-04-26T12:44:38.330Z,55.64
2023-04-26T12:47:10.347Z,55.83
2023-04-26T12:49:42.542Z,56.71
2023-04-26T12:52:09.435Z,54.90
2023-04-26T12:54:37.474Z,54.94
2023-04-26T12:57:07.274Z,55.53
2023-04-26T12:59:39.905Z,53.23
2023-04-26T13:02:07.597Z,53.64
2023-04-26T13:04:41.031Z,52.43
2023-04-26T13:07:08.884Z,53.71
2023-04-26T13:09:38.732Z,50.04
2023-04-26T13:12:10.509Z,50.65
2023-04-26T13:14:40.585Z,49.55
2023-04-26T13:17:09.193Z,48.31
2023-04-26T13:19:40.924Z,49.38
2023-04-26T13:22:10.486Z,49.75
2023-04-26T13:24:37.522Z,51.09
2023-04-26T13:27:04.410Z,52.63
2023-04-26T13:29:35.201Z,52.38
2023-04-26T13:32:04.380Z,53.44
2023-04-26T13:34:31.441Z,51.72
2023-04-26T13:37:00.944Z,51.68
2023-04-26T13:39:33.110Z,51.82
2023-04-26T13:42:01.986Z,52.96
2023-04-26T13:44:28.858Z,53.69
2023-04-26T13:47:00.788Z,53.82
2023-04-26T13:49:27.579Z,54.76
2023-04-26T13:51:54.432Z,54.65
2023-04-26T13:54:28.071Z,51.12
2023-04-26T13:56:55.285Z,49.20
2023-04-26T13:59:22.307Z,47.02
2023-04-26T14:01:49.138Z,46.59
2023-04-26T14:04:16.176Z,47.07
2023-04-26T14:06:43.116Z,46.28
2023-04-26T14:09:12.009Z,43.57
2023-04-26T14:11:40.997Z,43.87
2023-04-26T14:14:12.248Z,44.88
2023-04-26T14:16:41.337Z,48.72
2023-04-26T14:19:11.355Z,53.66
2023-04-26T14:21:38.247Z,55.94
2023-04-26T14:24:05.529Z,59.62
2023-04-26T14:26:33.518Z,61.82
2023-04-26T14:29:01.384Z,63.29
2023-04-26T14:31:28.901Z,63.88
2023-04-26T14:33:56.642Z,65.18
2023-04-26T14:36:23.761Z,65.06
2023-04-26T14:38:58.929Z,67.08
2023-04-26T14:41:27.322Z,68.22
2023-04-26T14:43:54.416Z,69.63
2023-04-26T14:46:24.075Z,70.43
2023-04-26T14:48:51.194Z,71.61
2023-04-26T14:51:18.286Z,72.45
2023-04-26T14:53:45.117Z,72.41
2023-04-26T14:56:15.139Z,71.29
2023-04-26T14:58:41.936Z,71.50
2023-04-26T15:01:09.395Z,72.23
2023-04-26T15:03:38.766Z,73.06
2023-04-26T15:06:05.925Z,73.20
2023-04-26T15:08:35.226Z,72.44
2023-04-26T15:11:03.208Z,72.79
2023-04-26T15:13:29.953Z,72.45
2023-04-26T15:16:06.024Z,71.46
2023-04-26T15:18:37.399Z,70.02
2023-04-26T15:21:04.231Z,70.13
2023-04-26T15:23:33.992Z,70.88
2023-04-26T15:26:05.972Z,71.80
2023-04-26T15:28:35.338Z,72.87
2023-04-26T15:31:10.545Z,71.84
2023-04-26T15:33:39.632Z,72.29
2023-04-26T15:36:09.431Z,72.78
2023-04-26T15:38:36.486Z,73.51
2023-04-26T15:41:06.693Z,73.41
2023-04-26T15:43:33.646Z,74.54
2023-04-26T15:46:03.478Z,74.27
2023-04-26T15:48:32.892Z,74.35
2023-04-26T15:50:59.747Z,73.84
2023-04-26T15:53:26.981Z,73.68
2023-04-26T15:55:56.704Z,72.95
2023-04-26T15:58:28.927Z,72.07
2023-04-26T16:00:57.864Z,72.27
2023-04-26T16:03:29.835Z,73.20
2023-04-26T16:05:57.116Z,74.19
2023-04-26T16:08:39.291Z,75.69
2023-04-26T16:11:16.414Z,77.04
2023-04-26T16:13:46.225Z,77.84
2023-04-26T16:16:13.101Z,77.55
2023-04-26T16:18:46.289Z,78.92
2023-04-26T16:21:15.260Z,79.48
2023-04-26T16:23:49.874Z,78.45
2023-04-26T16:26:19.143Z,78.81
2023-04-26T16:28:45.829Z,79.30
2023-04-26T16:31:14.569Z,80.41
2023-04-26T16:33:44.253Z,80.61
2023-04-26T16:36:11.063Z,80.75
2023-04-26T16:38:40.893Z,80.96
2023-04-26T16:41:10.003Z,80.93
2023-04-26T16:43:39.113Z,81.05
2023-04-26T16:46:08.335Z,80.97
2023-04-26T16:48:39.010Z,81.78
2023-04-26T16:51:07.575Z,81.61
2023-04-26T16:53:36.091Z,80.83
2023-04-26T16:56:03.628Z,81.13
2023-04-26T16:58:40.216Z,80.50
2023-04-26T17:01:11.542Z,79.74
2023-04-26T17:03:43.561Z,80.94
2023-04-26T17:06:11.434Z,79.23
2023-04-26T17:08:41.231Z,79.45
2023-04-26T17:11:21.501Z,79.48
2023-04-26T17:13:48.649Z,80.45
2023-04-26T17:16:16.658Z,80.88
2023-04-26T17:18:46.347Z,81.33
2023-04-26T17:21:15.420Z,80.79
2023-04-26T17:23:45.284Z,81.41
2023-04-26T17:26:12.311Z,81.61
2023-04-26T17:28:39.087Z,81.89
2023-04-26T17:31:06.183Z,81.81
2023-04-26T17:33:37.954Z,81.24
2023-04-26T17:36:05.488Z,80.41
2023-04-26T17:38:37.107Z,80.36
2023-04-26T17:41:05.754Z,80.14
2023-04-26T17:43:35.462Z,79.37
2023-04-26T17:46:04.972Z,77.70
2023-04-26T17:48:31.909Z,77.81
2023-04-26T17:50:59.003Z,78.17
2023-04-26T17:53:26.707Z,77.45
2023-04-26T17:55:55.196Z,76.41
2023-04-26T17:58:22.151Z,75.92
2023-04-26T18:00:50.604Z,76.73
2023-04-26T18:03:21.170Z,77.53
2023-04-26T18:05:48.809Z,77.70
2023-04-26T18:08:16.066Z,77.23
2023-04-26T18:10:43.393Z,75.72
2023-04-26T18:13:16.528Z,75.33
2023-04-26T18:15:44.515Z,76.01
2023-04-26T18:18:15.094Z,76.58
2023-04-26T18:20:42.445Z,75.98
2023-04-26T18:23:15.801Z,75.44
2023-04-26T18:25:44.142Z,74.76
2023-04-26T18:28:13.971Z,73.92
2023-04-26T18:30:44.807Z,75.16
2023-04-26T18:33:14.505Z,75.42
2023-04-26T18:35:50.235Z,76.03
2023-04-26T18:38:19.651Z,76.12
2023-04-26T18:40:52.003Z,75.90
2023-04-26T18:43:21.189Z,76.38
2023-04-26T18:45:51.107Z,76.38
2023-04-26T18:48:17.901Z,76.66
2023-04-26T18:50:56.486Z,76.54
2023-04-26T18:53:27.462Z,76.67
2023-04-26T18:55:55.676Z,76.47
2023-04-26T18:58:26.072Z,75.56
2023-04-26T19:01:08.316Z,76.43
2023-04-26T19:03:35.518Z,77.18
2023-04-26T19:06:11.723Z,76.76
2023-04-26T19:08:42.314Z,76.70
2023-04-26T19:11:12.929Z,76.92
2023-04-26T19:13:40.620Z,77.12
2023-04-26T19:16:18.976Z,77.38
2023-04-26T19:18:58.152Z,76.80
2023-04-26T19:21:24.870Z,76.84
2023-04-26T19:23:51.601Z,76.35
2023-04-26T19:26:27.691Z,76.32
2023-04-26T19:28:59.359Z,76.45
2023-04-26T19:31:29.160Z,75.63
2023-04-26T19:33:58.998Z,76.69
2023-04-26T19:36:37.161Z,76.22
2023-04-26T19:39:10.069Z,76.66
2023-04-26T19:41:39.629Z,75.79
2023-04-26T19:44:06.361Z,75.78
2023-04-26T19:46:35.467Z,75.56
2023-04-26T19:49:07.750Z,75.35
2023-04-26T19:51:34.882Z,75.22
2023-04-26T19:54:08.590Z,75.75
2023-04-26T19:57:04.912Z,75.87
2023-04-26T19:59:41.494Z,76.46
2023-04-26T20:02:14.137Z,76.02
2023-04-26T20:04:41.244Z,76.85
2023-04-26T20:07:11.326Z,76.79
2023-04-26T20:09:38.088Z,76.53
2023-04-26T20:12:07.714Z,76.36
2023-04-26T20:14:34.779Z,76.43
2023-04-26T20:17:02.576Z,76.70
2023-04-26T20:19:29.838Z,76.93
2023-04-26T20:21:59.585Z,76.66
2023-04-26T20:24:36.960Z,75.94
2023-04-26T20:27:06.184Z,76.31
2023-04-26T20:29:32.979Z,76.74
2023-04-26T20:31:59.747Z,76.26
2023-04-26T20:34:29.376Z,75.79
2023-04-26T20:36:56.183Z,76.73
2023-04-26T20:39:29.456Z,76.77
2023-04-26T20:41:58.712Z,77.47
2023-04-26T20:44:25.589Z,77.65
2023-04-26T20:46:52.280Z,76.05
2023-04-26T20:49:19.233Z,75.92
2023-04-26T20:51:46.062Z,75.36
2023-04-26T20:54:12.801Z,76.58
2023-04-26T20:56:41.716Z,76.51
2023-04-26T20:59:08.588Z,76.81
2023-04-26T21:01:40.301Z,76.17
2023-04-26T21:04:09.055Z,75.59
2023-04-26T21:06:35.965Z,75.84
2023-04-26T21:09:02.734Z,76.50
2023-04-26T21:11:36.352Z,76.39
2023-04-26T21:14:08.858Z,75.64
2023-04-26T21:16:38.255Z,75.53
2023-04-26T21:19:05.455Z,75.18
2023-04-26T21:21:32.696Z,75.84
2023-04-26T21:23:59.881Z,75.81
2023-04-26T21:26:29.731Z,76.43
2023-04-26T21:28:56.650Z,76.03
2023-04-26T21:31:23.682Z,76.75
2023-04-26T21:33:50.867Z,76.68
2023-04-26T21:36:17.784Z,76.36
2023-04-26T21:38:44.772Z,77.77
2023-04-26T21:41:11.592Z,77.81
2023-04-26T21:43:41.120Z,79.04
2023-04-26T21:46:08.140Z,78.97
2023-04-26T21:48:35.459Z,78.40
2023-04-26T21:51:02.385Z,76.71
2023-04-26T21:53:29.233Z,76.86
2023-04-26T21:55:56.442Z,77.45
2023-04-26T21:58:23.450Z,77.33
2023-04-26T22:00:50.900Z,77.26
2023-04-26T22:03:18.699Z,76.55
2023-04-26T22:05:45.974Z,77.31
2023-04-26T22:08:15.261Z,76.59
2023-04-26T22:10:42.143Z,76.54
2023-04-26T22:13:11.607Z,76.33
2023-04-26T22:15:38.487Z,76.53
2023-04-26T22:18:05.439Z,76.90
2023-04-26T22:20:32.332Z,76.97
2023-04-26T22:22:59.374Z,76.36
2023-04-26T22:25:26.794Z,76.05
2023-04-26T22:27:53.906Z,77.09
2023-04-26T22:30:25.405Z,75.47
2023-04-26T22:32:55.627Z,75.86
2023-04-26T22:35:25.852Z,76.23
2023-04-26T22:37:52.944Z,75.94
2023-04-26T22:40:20.907Z,75.73
2023-04-26T22:42:47.876Z,76.60
2023-04-26T22:45:14.790Z,76.85
2023-04-26T22:47:41.635Z,77.27
2023-04-26T22:50:08.974Z,78.03
2023-04-26T22:52:36.346Z,76.69
2023-04-26T22:55:03.494Z,77.18
2023-04-26T22:57:31.299Z,76.70
2023-04-26T23:00:00.867Z,75.91
2023-04-26T23:02:27.906Z,75.44
2023-04-26T23:04:54.884Z,76.87
2023-04-26T23:07:22.849Z,75.56
2023-04-26T23:09:51.984Z,75.92
2023-04-26T23:12:20.160Z,75.79
2023-04-26T23:14:48.678Z,76.41
2023-04-26T23:17:15.758Z,75.64
2023-04-26T23:19:42.735Z,76.46
2023-04-26T23:22:09.577Z,76.34
2023-04-26T23:24:38.699Z,76.70
2023-04-26T23:27:05.561Z,77.21
2023-04-26T23:29:32.599Z,76.13
2023-04-26T23:32:00.862Z,76.70
2023-04-26T23:34:30.117Z,77.45
2023-04-26T23:37:06.982Z,76.50
2023-04-26T23:39:36.124Z,76.94
2023-04-26T23:42:04.029Z,76.20
2023-04-26T23:44:31.328Z,76.05
2023-04-26T23:47:00.055Z,76.37
2023-04-26T23:49:27.184Z,76.25
2023-04-26T23:51:54.072Z,76.37
2023-04-26T23:54:20.929Z,76.24
2023-04-26T23:56:48.277Z,75.83
2023-04-26T23:59:16.538Z,75.86
